Doha, Qatar

11:54 AM AST on July 29, 2014 (GMT +0300)
Wakra (IWAKRAWA2) Elev 23 ft | 25.17 °N, 51.60 °E | Change Station

Current weather conditions updated 3 seconds ago

Clear
Clear
107.1 °F
Feels Like 107 °F
N
17.4
Wind Variable Wind from NW
Gusts 27.3 mph

Today is forecast to be Cooler than yesterday.

Today
High -- | Low -- °F
--% Chance of Precip.
Yesterday
High -- | Low -- °F
Precip. -- in
4:59 AM 6:20 PM
Waxing Crescent, 5% visible
Pressure 29.47 in
Visibility -9999.0 miles
Clouds
Heat Index 107 °F
Dew Point 56 °F
Humidity 19%
Rainfall 0.00 in
Snow Depth Not available.
UV Not available.
Pollen Not available.
Air Quality Not available.
Flu Activity Not available.
METAR OTBD 290800Z 32016G26KT 280V360 CAVOK 42/13 Q0998 NOSIG

More Conditions Fewer Conditions

Pressure 29.47 in
Visibility -9999.0 miles
Clouds
Heat Index 107 °F
Dew Point 56 °F
Humidity 19%
Rainfall 0.00 in
Snow Depth Not available.
UV Not available.
Pollen Not available.
Air Quality Not available.
Flu Activity Not available.
METAR OTBD 290800Z 32016G26KT 280V360 CAVOK 42/13 Q0998 NOSIG

More Conditions Fewer Conditions

10-Day Weather Forecast

Almanac

Astronomy

Jul. 29, 2014 Rise Set
Actual Time 4:59 AM AST 6:20 PM AST
Civil Twilight 4:34 AM AST 6:45 PM AST
Nautical Twilight 4:05 AM AST 7:14 PM AST
Astronomical Twilight 3:34 AM AST 7:45 PM AST
Moon 6:55 AM AST 7:42 PM AST
Length of Visible Light 14h 10m
Length of Day
13h 21m
Tomorrow will be 1m 3s shorter.
Waxing Crescent, 5% of the Moon is Illuminated
Today
Waxing Crescent
Aug 3
First Quarter
Aug 10
Full
Aug 17
Last Quarter
Aug 25
New

Yesterday's Extremes

Country Highs Country Lows

Community

WunderPhotos

Upload Photos

1,738,655 photos uploaded!

Nearby

Snow Depth

Not available.

Earthquake Activity

City Distance Mag. Time & Date
No recent earthquake activity has been reported nearby.
Minimum magnitude displayed is 2.5.

Coastal Water Temperatures

Place Temperature
No Stations Reporting

Nearby Weather Stations

Station Location Temp. Heat Index Dew Point Humidity Wind Precip. Elev Updated Type
Wakra, Wakra 107.1 °F 107 °F 56 °F 19% NW  at  17.4 mph 0.00 in / hr 23 ft 11:54 AM AST Rapid Fire
Al Waab, Doha 106.0 °F 101 °F 43 °F 12% North  at  9.2 mph 0.00 in / hr 69 ft 11:06 AM AST Normal

Show More Stations Show Fewer Stations